createdAt,value
2017-12-28T00:00:04.659Z,77.88
2017-12-28T00:02:30.898Z,77.99
2017-12-28T00:04:57.287Z,77.94
2017-12-28T00:07:23.728Z,78.26
2017-12-28T00:09:50.220Z,78.40
2017-12-28T00:12:16.586Z,78.54
2017-12-28T00:14:43.012Z,78.68
2017-12-28T00:17:09.391Z,78.80
2017-12-28T00:19:35.795Z,78.59
2017-12-28T00:22:02.215Z,78.79
2017-12-28T00:24:28.643Z,78.64
2017-12-28T00:26:55.067Z,78.54
2017-12-28T00:29:21.539Z,78.69
2017-12-28T00:31:47.916Z,78.50
2017-12-28T00:34:14.252Z,78.05
2017-12-28T00:36:40.676Z,78.47
2017-12-28T00:39:07.008Z,78.46
2017-12-28T00:41:33.563Z,78.65
2017-12-28T00:44:00.058Z,78.64
2017-12-28T00:46:26.440Z,78.75
2017-12-28T00:48:52.840Z,79.12
2017-12-28T00:51:19.247Z,78.93
2017-12-28T00:53:45.583Z,78.37
2017-12-28T00:56:11.982Z,77.84
2017-12-28T00:58:38.391Z,77.32
2017-12-28T01:01:04.795Z,78.04
2017-12-28T01:03:31.311Z,77.39
2017-12-28T01:05:57.705Z,76.97
2017-12-28T01:08:24.044Z,77.64
2017-12-28T01:10:50.455Z,76.96
2017-12-28T01:13:16.856Z,76.71
2017-12-28T01:15:43.255Z,77.15
2017-12-28T01:18:09.663Z,77.31
2017-12-28T01:20:36.063Z,76.92
2017-12-28T01:23:02.416Z,76.99
2017-12-28T01:25:28.819Z,77.54
2017-12-28T01:27:55.227Z,78.20
2017-12-28T01:30:21.631Z,77.33
2017-12-28T01:32:48.036Z,77.35
2017-12-28T01:35:14.484Z,76.02
2017-12-28T01:37:40.892Z,75.36
2017-12-28T01:40:07.292Z,75.26
2017-12-28T01:42:33.723Z,75.56
2017-12-28T01:45:00.183Z,76.47
2017-12-28T01:47:26.512Z,76.69
2017-12-28T01:49:53.335Z,76.95
2017-12-28T01:52:19.738Z,76.96
2017-12-28T01:54:46.119Z,76.93
2017-12-28T01:57:12.539Z,77.34
2017-12-28T01:59:38.956Z,77.43
2017-12-28T02:02:05.366Z,77.46
2017-12-28T02:04:31.860Z,77.64
2017-12-28T02:06:58.279Z,77.54
2017-12-28T02:09:24.763Z,77.39
2017-12-28T02:11:51.210Z,77.98
2017-12-28T02:14:17.629Z,78.04
2017-12-28T02:16:43.985Z,77.88
2017-12-28T02:19:10.468Z,77.73
2017-12-28T02:21:36.947Z,78.35
2017-12-28T02:24:03.331Z,78.57
2017-12-28T02:26:29.702Z,78.96
2017-12-28T02:28:56.071Z,78.00
2017-12-28T02:31:22.459Z,78.40
2017-12-28T02:33:48.952Z,78.68
2017-12-28T02:36:15.291Z,78.56
2017-12-28T02:38:41.668Z,77.79
2017-12-28T02:41:08.051Z,78.12
2017-12-28T02:43:34.528Z,77.47
2017-12-28T02:46:00.892Z,77.07
2017-12-28T02:48:27.292Z,77.41
2017-12-28T02:50:53.675Z,78.13
2017-12-28T02:53:20.060Z,78.45
2017-12-28T02:55:46.492Z,77.73
2017-12-28T02:58:12.843Z,78.22
2017-12-28T03:00:39.276Z,78.38
2017-12-28T03:03:05.639Z,78.60
2017-12-28T03:05:31.992Z,78.69
2017-12-28T03:07:58.370Z,78.22
2017-12-28T03:10:24.831Z,78.32
2017-12-28T03:12:51.200Z,78.29
2017-12-28T03:15:17.573Z,78.47
2017-12-28T03:17:44.087Z,78.75
2017-12-28T03:20:10.483Z,78.74
2017-12-28T03:22:36.843Z,78.77
2017-12-28T03:25:03.263Z,78.62
2017-12-28T03:27:29.655Z,78.69
2017-12-28T03:29:56.043Z,78.75
2017-12-28T03:32:22.516Z,78.69
2017-12-28T03:34:48.900Z,78.60
2017-12-28T03:37:15.323Z,78.52
2017-12-28T03:39:41.810Z,78.49
2017-12-28T03:42:08.179Z,78.62
2017-12-28T03:44:34.587Z,78.08
2017-12-28T03:47:01.023Z,77.97
2017-12-28T03:49:27.387Z,78.39
2017-12-28T03:51:53.836Z,78.26
2017-12-28T03:54:20.271Z,77.92
2017-12-28T03:56:46.643Z,78.40
2017-12-28T03:59:12.983Z,78.65
2017-12-28T04:01:39.512Z,77.91
2017-12-28T04:04:05.851Z,78.28
2017-12-28T04:06:32.172Z,79.16
2017-12-28T04:08:58.554Z,79.79
2017-12-28T04:11:24.893Z,79.89
2017-12-28T04:13:51.291Z,79.79
2017-12-28T04:16:17.695Z,79.27
2017-12-28T04:18:44.036Z,79.16
2017-12-28T04:21:10.371Z,79.54
2017-12-28T04:23:36.827Z,79.57
2017-12-28T04:26:03.219Z,79.59
2017-12-28T04:28:29.582Z,79.85
2017-12-28T04:30:56.063Z,78.76
2017-12-28T04:33:22.480Z,78.62
2017-12-28T04:35:48.812Z,78.90
2017-12-28T04:38:15.236Z,79.11
2017-12-28T04:40:41.624Z,79.25
2017-12-28T04:43:08.056Z,78.47
2017-12-28T04:45:34.535Z,77.72
2017-12-28T04:48:00.926Z,77.83
2017-12-28T04:50:27.268Z,76.44
2017-12-28T04:52:53.690Z,77.13
2017-12-28T04:55:20.084Z,78.12
2017-12-28T04:57:46.416Z,77.60
2017-12-28T05:00:12.888Z,77.12
2017-12-28T05:02:39.299Z,78.18
2017-12-28T05:05:05.668Z,78.73
2017-12-28T05:07:32.087Z,79.33
2017-12-28T05:09:58.459Z,79.56
2017-12-28T05:12:24.867Z,79.66
2017-12-28T05:14:51.299Z,79.40
2017-12-28T05:17:17.703Z,79.56
2017-12-28T05:19:44.087Z,79.75
2017-12-28T05:22:10.478Z,78.57
2017-12-28T05:24:36.807Z,79.30
2017-12-28T05:27:03.210Z,79.69
2017-12-28T05:29:29.615Z,78.49
2017-12-28T05:31:56.040Z,79.17
2017-12-28T05:34:22.391Z,79.57
2017-12-28T05:36:48.784Z,78.73
2017-12-28T05:39:15.239Z,78.63
2017-12-28T05:41:41.651Z,78.89
2017-12-28T05:44:08.141Z,76.46
2017-12-28T05:46:34.535Z,76.81
2017-12-28T05:49:01.001Z,78.23
2017-12-28T05:51:34.480Z,75.50
2017-12-28T05:54:00.947Z,75.55
2017-12-28T05:56:27.315Z,76.60
2017-12-28T05:58:53.724Z,76.54
2017-12-28T06:01:20.168Z,77.95
2017-12-28T06:03:46.634Z,76.71
2017-12-28T06:06:13.043Z,76.64
2017-12-28T06:08:39.482Z,77.10
2017-12-28T06:11:05.943Z,76.48
2017-12-28T06:13:32.367Z,78.16
2017-12-28T06:15:58.767Z,77.47
2017-12-28T06:18:25.167Z,76.18
2017-12-28T06:20:51.735Z,77.39
2017-12-28T06:23:18.125Z,76.47
2017-12-28T06:25:44.461Z,77.40
2017-12-28T06:28:10.922Z,77.47
2017-12-28T06:30:37.403Z,78.86
2017-12-28T06:33:03.879Z,80.07
2017-12-28T06:35:30.392Z,80.00
2017-12-28T06:37:56.808Z,78.97
2017-12-28T06:40:23.324Z,79.77
2017-12-28T06:42:49.899Z,77.75
2017-12-28T06:45:16.411Z,77.20
2017-12-28T06:47:42.896Z,76.50
2017-12-28T06:50:09.459Z,74.92
2017-12-28T06:52:35.979Z,74.00
2017-12-28T06:55:02.443Z,76.22
2017-12-28T06:57:28.912Z,75.78
2017-12-28T06:59:55.443Z,77.30
2017-12-28T07:02:21.860Z,75.86
2017-12-28T07:04:48.283Z,78.07
2017-12-28T07:07:14.795Z,76.55
2017-12-28T07:09:42.196Z,76.12
2017-12-28T07:12:08.700Z,77.27
2017-12-28T07:14:35.093Z,76.65
2017-12-28T07:17:01.443Z,76.05
2017-12-28T07:19:27.875Z,77.39
2017-12-28T07:21:54.321Z,75.39
2017-12-28T07:24:20.732Z,77.15
2017-12-28T07:26:47.133Z,77.18
2017-12-28T07:29:13.588Z,76.19
2017-12-28T07:31:39.955Z,75.24
2017-12-28T07:34:06.415Z,73.41
2017-12-28T07:36:32.787Z,71.77
2017-12-28T07:38:59.178Z,77.18
2017-12-28T07:41:25.607Z,77.93
2017-12-28T07:43:51.985Z,76.29
2017-12-28T07:46:18.351Z,77.45
2017-12-28T07:48:44.851Z,76.48
2017-12-28T07:51:11.422Z,73.15
2017-12-28T07:53:44.779Z,74.70
2017-12-28T07:56:11.172Z,76.48
2017-12-28T07:58:37.532Z,76.94
2017-12-28T08:01:03.851Z,80.75
2017-12-28T08:03:30.417Z,80.72
2017-12-28T08:05:56.784Z,78.71
2017-12-28T08:08:23.159Z,80.61
2017-12-28T08:10:50.495Z,81.50
2017-12-28T08:13:16.858Z,80.78
2017-12-28T08:15:43.511Z,76.88
2017-12-28T08:18:09.882Z,77.45
2017-12-28T08:20:36.267Z,81.47
2017-12-28T08:23:02.718Z,77.13
2017-12-28T08:25:29.184Z,75.22
2017-12-28T08:27:55.851Z,74.71
2017-12-28T08:30:22.236Z,76.28
2017-12-28T08:32:48.742Z,77.17
2017-12-28T08:35:15.179Z,80.39
2017-12-28T08:37:41.569Z,77.01
2017-12-28T08:40:08.075Z,75.03
2017-12-28T08:42:34.607Z,74.33
2017-12-28T08:45:01.039Z,78.62
2017-12-28T08:47:27.547Z,80.08
2017-12-28T08:49:53.963Z,71.73
2017-12-28T08:52:20.494Z,72.18
2017-12-28T08:54:47.171Z,71.59
2017-12-28T08:57:13.721Z,74.87
2017-12-28T08:59:40.175Z,76.39
2017-12-28T09:02:06.769Z,75.52
2017-12-28T09:04:33.119Z,76.32
2017-12-28T09:06:59.559Z,69.57
2017-12-28T09:09:25.963Z,65.63
2017-12-28T09:11:52.303Z,66.54
2017-12-28T09:14:18.682Z,73.14
2017-12-28T09:16:45.136Z,78.03
2017-12-28T09:19:11.546Z,80.63
2017-12-28T09:21:38.021Z,75.04
2017-12-28T09:24:04.540Z,77.28
2017-12-28T09:26:30.871Z,76.20
2017-12-28T09:28:57.254Z,70.52
2017-12-28T09:31:23.627Z,73.09
2017-12-28T09:33:50.050Z,67.55
2017-12-28T09:36:16.517Z,67.03
2017-12-28T09:38:42.973Z,67.51
2017-12-28T09:41:09.371Z,72.50
2017-12-28T09:43:35.927Z,69.33
2017-12-28T09:46:02.371Z,64.26
2017-12-28T09:48:28.808Z,73.01
2017-12-28T09:50:55.171Z,68.70
2017-12-28T09:53:21.625Z,72.74
2017-12-28T09:55:48.020Z,65.72
2017-12-28T09:58:14.397Z,68.56
2017-12-28T10:00:40.811Z,70.01
2017-12-28T10:03:07.312Z,62.40
2017-12-28T10:05:33.691Z,70.49
2017-12-28T10:08:00.131Z,67.27
2017-12-28T10:10:26.647Z,61.15
2017-12-28T10:12:53.040Z,66.85
2017-12-28T10:15:19.475Z,68.54
2017-12-28T10:17:45.907Z,70.21
2017-12-28T10:20:12.303Z,66.20
2017-12-28T10:22:38.711Z,64.74
2017-12-28T10:25:05.056Z,61.73
2017-12-28T10:40:36.992Z,66.35
2017-12-28T10:43:03.339Z,67.36
2017-12-28T10:45:29.779Z,69.79
2017-12-28T10:47:56.271Z,67.74
2017-12-28T10:50:22.696Z,66.52
2017-12-28T10:52:49.068Z,67.63
2017-12-28T10:55:15.607Z,63.80
2017-12-28T10:57:42.075Z,65.86
2017-12-28T11:00:08.471Z,68.78
2017-12-28T11:02:34.907Z,67.63
2017-12-28T11:05:01.368Z,68.23
2017-12-28T11:07:27.987Z,67.56
2017-12-28T11:09:54.492Z,69.21
2017-12-28T11:12:20.920Z,64.43
2017-12-28T11:14:47.381Z,63.49
2017-12-28T11:17:13.824Z,62.29
2017-12-28T11:19:40.234Z,61.03
2017-12-28T11:22:06.755Z,64.57
2017-12-28T11:24:33.456Z,65.13
2017-12-28T11:26:59.847Z,61.75
2017-12-28T11:29:26.295Z,62.25
2017-12-28T11:31:52.788Z,63.82
2017-12-28T11:34:19.156Z,62.77
2017-12-28T11:36:45.568Z,66.97
2017-12-28T11:39:12.010Z,65.31
2017-12-28T11:41:38.395Z,66.00
2017-12-28T11:44:04.791Z,61.39
2017-12-28T11:46:31.195Z,60.86
2017-12-28T11:48:57.605Z,67.20
2017-12-28T11:51:24.068Z,63.50
2017-12-28T11:53:50.555Z,65.03
2017-12-28T11:56:19.001Z,61.39
2017-12-28T11:58:49.348Z,60.57
2017-12-28T12:01:18.635Z,64.91
2017-12-28T12:03:45.052Z,65.84
2017-12-28T12:06:11.499Z,64.64
2017-12-28T12:08:43.936Z,63.19
2017-12-28T12:11:10.347Z,68.64
2017-12-28T12:13:36.763Z,67.35
2017-12-28T12:16:03.195Z,68.24
2017-12-28T12:18:29.643Z,61.83
2017-12-28T12:20:56.053Z,70.37
2017-12-28T12:23:22.476Z,62.67
2017-12-28T12:25:48.862Z,70.58
2017-12-28T12:28:15.215Z,66.07
2017-12-28T12:30:41.672Z,63.57
2017-12-28T12:33:08.017Z,62.05
2017-12-28T12:35:34.436Z,64.62
2017-12-28T12:38:00.843Z,67.17
2017-12-28T12:40:27.310Z,66.72
2017-12-28T12:42:53.687Z,64.50
2017-12-28T12:45:20.095Z,66.82
2017-12-28T12:47:46.553Z,69.08
2017-12-28T12:50:13.009Z,66.01
2017-12-28T12:52:39.546Z,69.25
2017-12-28T12:55:05.876Z,62.68
2017-12-28T12:57:32.403Z,71.67
2017-12-28T12:59:58.798Z,64.69
2017-12-28T13:02:25.203Z,63.19
2017-12-28T13:04:51.748Z,67.50
2017-12-28T13:07:18.135Z,64.62
2017-12-28T13:09:44.648Z,68.78
2017-12-28T13:12:11.031Z,69.70
2017-12-28T13:14:37.535Z,70.92
2017-12-28T13:17:04.016Z,66.95
2017-12-28T13:19:30.411Z,71.29
2017-12-28T13:21:56.835Z,71.11
2017-12-28T13:24:23.203Z,73.01
2017-12-28T13:26:49.615Z,69.77
2017-12-28T13:29:16.000Z,70.69
2017-12-28T13:31:42.418Z,71.87
2017-12-28T13:34:08.880Z,68.81
2017-12-28T13:36:35.384Z,64.00
2017-12-28T13:39:01.767Z,73.14
2017-12-28T13:41:28.154Z,75.81
2017-12-28T13:43:54.600Z,75.68
2017-12-28T13:46:21.048Z,71.27
2017-12-28T13:48:47.423Z,75.46
2017-12-28T13:51:13.863Z,73.79
2017-12-28T13:53:40.404Z,74.17
2017-12-28T13:56:06.792Z,75.92
2017-12-28T13:58:33.255Z,75.51
2017-12-28T14:00:59.659Z,75.35
2017-12-28T14:03:26.047Z,68.21
2017-12-28T14:05:52.477Z,67.21
2017-12-28T14:08:18.891Z,65.92
2017-12-28T14:10:45.233Z,70.65
2017-12-28T14:13:11.923Z,66.29
2017-12-28T14:15:38.327Z,68.79
2017-12-28T14:18:04.724Z,67.69
2017-12-28T14:20:31.111Z,64.56
2017-12-28T14:22:57.495Z,70.08
2017-12-28T14:25:23.923Z,69.18
2017-12-28T14:27:50.391Z,67.31
2017-12-28T14:30:16.843Z,69.16
2017-12-28T14:32:43.291Z,65.18
2017-12-28T14:35:09.730Z,67.39
2017-12-28T14:37:36.114Z,65.06
2017-12-28T14:40:02.463Z,69.59
2017-12-28T14:42:28.854Z,64.53
2017-12-28T14:44:55.395Z,68.10
2017-12-28T14:47:21.824Z,70.90
2017-12-28T14:49:48.255Z,66.85
2017-12-28T14:52:14.713Z,71.41
2017-12-28T14:54:41.146Z,66.96
2017-12-28T14:57:07.556Z,71.21
2017-12-28T14:59:33.939Z,71.54
2017-12-28T15:02:00.312Z,69.29
2017-12-28T15:04:26.675Z,65.62
2017-12-28T15:06:53.095Z,67.57
2017-12-28T15:09:19.651Z,67.07
2017-12-28T15:11:46.090Z,71.99
2017-12-28T15:14:12.442Z,67.49
2017-12-28T15:16:38.815Z,65.20
2017-12-28T15:19:05.265Z,73.42
2017-12-28T15:21:31.655Z,68.76
2017-12-28T15:23:58.043Z,71.32
2017-12-28T15:26:24.447Z,66.02
2017-12-28T15:28:50.810Z,66.72
2017-12-28T15:31:17.338Z,66.99
2017-12-28T15:33:43.799Z,65.69
2017-12-28T15:36:10.187Z,73.30
2017-12-28T15:38:36.551Z,70.75
2017-12-28T15:41:02.987Z,66.58
2017-12-28T15:43:29.382Z,75.38
2017-12-28T15:45:55.867Z,68.49
2017-12-28T15:48:22.411Z,71.55
2017-12-28T15:50:48.788Z,77.07
2017-12-28T15:53:15.136Z,74.21
2017-12-28T15:55:41.628Z,70.90
2017-12-28T15:58:08.013Z,65.79
2017-12-28T16:00:34.573Z,65.45
2017-12-28T16:03:01.086Z,74.62
2017-12-28T16:05:27.476Z,77.09
2017-12-28T16:07:53.855Z,75.62
2017-12-28T16:10:22.351Z,71.33
2017-12-28T16:12:48.736Z,73.53
2017-12-28T16:15:15.189Z,76.60
2017-12-28T16:17:41.656Z,72.74
2017-12-28T16:20:08.079Z,71.52
2017-12-28T16:22:34.539Z,69.72
2017-12-28T16:25:00.967Z,72.08
2017-12-28T16:27:27.388Z,74.37
2017-12-28T16:29:53.716Z,67.12
2017-12-28T16:32:20.159Z,70.21
2017-12-28T16:34:46.484Z,67.47
2017-12-28T16:37:12.911Z,67.65
2017-12-28T16:39:39.404Z,68.08
2017-12-28T16:42:05.780Z,73.18
2017-12-28T16:44:32.219Z,73.58
2017-12-28T16:46:58.647Z,69.89
2017-12-28T16:49:25.000Z,68.31
2017-12-28T16:51:51.387Z,74.44
2017-12-28T16:54:17.779Z,75.42
2017-12-28T16:56:44.144Z,69.01
2017-12-28T16:59:10.604Z,76.76
2017-12-28T17:01:37.039Z,75.89
2017-12-28T17:04:03.427Z,71.15
2017-12-28T17:06:29.765Z,71.69
2017-12-28T17:08:56.266Z,70.54
2017-12-28T17:11:22.747Z,72.03
2017-12-28T17:13:49.073Z,69.05
2017-12-28T17:16:15.483Z,73.71
2017-12-28T17:18:41.927Z,69.75
2017-12-28T17:21:08.336Z,75.90
2017-12-28T17:23:34.806Z,68.49
2017-12-28T17:26:01.199Z,74.39
2017-12-28T17:28:27.547Z,75.87
2017-12-28T17:30:53.964Z,75.03
2017-12-28T17:33:20.294Z,74.66
2017-12-28T17:35:46.747Z,78.97
2017-12-28T17:38:13.155Z,76.20
2017-12-28T17:40:39.499Z,77.50
2017-12-28T17:43:05.952Z,73.23
2017-12-28T17:45:32.438Z,76.91
2017-12-28T17:47:58.924Z,80.62
2017-12-28T17:50:25.308Z,79.38
2017-12-28T17:52:51.770Z,77.44
2017-12-28T17:55:18.288Z,74.26
2017-12-28T17:57:44.644Z,74.73
2017-12-28T18:00:11.031Z,78.80
2017-12-28T18:02:37.400Z,75.33
2017-12-28T18:05:03.771Z,72.55
2017-12-28T18:07:30.253Z,70.30
2017-12-28T18:09:56.668Z,74.51
2017-12-28T18:12:23.181Z,75.44
2017-12-28T18:14:49.665Z,79.48
2017-12-28T18:17:16.135Z,74.79
2017-12-28T18:19:42.555Z,77.32
2017-12-28T18:22:09.848Z,80.28
2017-12-28T18:24:36.281Z,81.81
2017-12-28T18:27:02.712Z,80.17
2017-12-28T18:29:29.099Z,74.39
2017-12-28T18:31:55.479Z,75.59
2017-12-28T18:34:21.954Z,71.77
2017-12-28T18:36:48.399Z,74.27
2017-12-28T18:39:14.756Z,72.84
2017-12-28T18:41:41.163Z,72.50
2017-12-28T18:44:07.588Z,73.19
2017-12-28T18:46:33.968Z,78.11
2017-12-28T18:49:01.060Z,76.01
2017-12-28T18:51:28.499Z,76.27
2017-12-28T18:53:55.619Z,76.53
2017-12-28T18:56:21.996Z,74.33
2017-12-28T18:58:48.423Z,79.34
2017-12-28T19:01:14.820Z,78.78
2017-12-28T19:03:41.160Z,77.74
2017-12-28T19:06:07.655Z,78.47
2017-12-28T19:08:34.079Z,73.29
2017-12-28T19:11:00.440Z,79.13
2017-12-28T19:13:26.816Z,74.57
2017-12-28T19:15:53.318Z,74.07
2017-12-28T19:18:19.664Z,77.42
2017-12-28T19:20:46.166Z,77.96
2017-12-28T19:23:12.547Z,79.06
2017-12-28T19:25:38.947Z,78.80
2017-12-28T19:28:05.300Z,73.75
2017-12-28T19:30:31.660Z,78.58
2017-12-28T19:32:58.021Z,76.78
2017-12-28T19:35:24.393Z,78.75
2017-12-28T19:37:50.775Z,78.12
2017-12-28T19:40:17.281Z,74.55
2017-12-28T19:42:43.720Z,78.23
2017-12-28T19:45:10.096Z,75.17
2017-12-28T19:47:36.503Z,76.85
2017-12-28T19:50:03.165Z,73.88
2017-12-28T19:52:29.573Z,75.05
2017-12-28T19:54:56.029Z,76.44
2017-12-28T19:57:22.442Z,75.96
2017-12-28T19:59:48.957Z,76.52
2017-12-28T20:02:15.443Z,77.59
2017-12-28T20:04:41.919Z,76.67
2017-12-28T20:07:08.263Z,72.88
2017-12-28T20:09:34.646Z,73.58
2017-12-28T20:12:01.065Z,76.82
2017-12-28T20:14:27.637Z,73.41
2017-12-28T20:16:54.958Z,73.31
2017-12-28T20:19:21.371Z,75.80
2017-12-28T20:21:47.747Z,73.56
2017-12-28T20:24:14.083Z,76.27
2017-12-28T20:26:40.520Z,77.51
2017-12-28T20:29:06.939Z,77.71
2017-12-28T20:31:33.352Z,70.07
2017-12-28T20:33:59.791Z,78.55
2017-12-28T20:36:26.170Z,72.67
2017-12-28T20:38:52.671Z,72.40
2017-12-28T20:41:19.182Z,75.80
2017-12-28T20:43:45.639Z,70.90
2017-12-28T20:46:11.995Z,76.85
2017-12-28T20:48:38.482Z,76.49
2017-12-28T20:51:04.917Z,78.79
2017-12-28T20:53:31.388Z,79.45
2017-12-28T20:55:57.783Z,79.15
2017-12-28T20:58:24.163Z,73.34
2017-12-28T21:00:50.548Z,74.96
2017-12-28T21:03:17.060Z,69.29
2017-12-28T21:05:43.404Z,73.65
2017-12-28T21:08:09.859Z,75.94
2017-12-28T21:10:36.278Z,75.18
2017-12-28T21:13:02.630Z,73.88
2017-12-28T21:15:29.022Z,71.38
2017-12-28T21:17:55.399Z,74.84
2017-12-28T21:20:21.781Z,71.33
2017-12-28T21:22:48.231Z,73.69
2017-12-28T21:25:14.886Z,78.77
2017-12-28T21:27:41.314Z,73.82
2017-12-28T21:30:07.707Z,72.83
2017-12-28T21:32:34.135Z,71.63
2017-12-28T21:35:00.502Z,79.29
2017-12-28T21:37:26.878Z,76.68
2017-12-28T21:39:53.277Z,75.42
2017-12-28T21:42:19.642Z,73.21
2017-12-28T21:44:46.016Z,74.32
2017-12-28T21:47:14.294Z,73.71
2017-12-28T21:49:40.683Z,72.58
2017-12-28T21:52:07.083Z,73.62
2017-12-28T21:54:33.531Z,73.54
2017-12-28T21:56:59.987Z,75.29
2017-12-28T21:59:26.343Z,72.40
2017-12-28T22:01:52.744Z,71.96
2017-12-28T22:04:19.075Z,75.69
2017-12-28T22:06:45.446Z,71.14
2017-12-28T22:09:18.779Z,73.04
2017-12-28T22:11:45.239Z,73.60
2017-12-28T22:14:11.594Z,72.70
2017-12-28T22:16:37.971Z,74.76
2017-12-28T22:19:04.330Z,78.01
2017-12-28T22:21:30.699Z,77.94
2017-12-28T22:23:57.076Z,75.76
2017-12-28T22:26:23.452Z,70.52
2017-12-28T22:28:49.879Z,76.17
2017-12-28T22:31:16.336Z,77.24
2017-12-28T22:33:42.739Z,76.21
2017-12-28T22:36:09.082Z,78.91
2017-12-28T22:38:35.591Z,77.55
2017-12-28T22:41:02.034Z,77.24
2017-12-28T22:43:28.566Z,78.35
2017-12-28T22:45:55.015Z,75.31
2017-12-28T22:48:21.423Z,78.29
2017-12-28T22:50:47.851Z,77.16
2017-12-28T22:53:14.235Z,74.46
2017-12-28T22:55:40.655Z,76.18
2017-12-28T22:58:07.055Z,71.50
2017-12-28T23:00:40.543Z,75.72
2017-12-28T23:03:06.891Z,71.68
2017-12-28T23:05:33.255Z,70.58
2017-12-28T23:07:59.707Z,74.81
2017-12-28T23:10:26.105Z,75.54
2017-12-28T23:12:52.495Z,74.44
2017-12-28T23:15:18.916Z,75.27
2017-12-28T23:17:45.308Z,75.46
2017-12-28T23:20:11.704Z,75.94
2017-12-28T23:22:38.092Z,74.72
2017-12-28T23:25:04.483Z,72.83
2017-12-28T23:27:30.804Z,72.77
2017-12-28T23:29:57.193Z,77.75
2017-12-28T23:32:23.571Z,74.22
2017-12-28T23:34:49.883Z,76.91
2017-12-28T23:37:16.359Z,77.15
2017-12-28T23:39:42.839Z,74.62
2017-12-28T23:42:09.277Z,72.66
2017-12-28T23:44:35.711Z,76.89
2017-12-28T23:47:02.015Z,73.23
2017-12-28T23:49:28.407Z,74.59
2017-12-28T23:51:54.896Z,71.80
2017-12-28T23:54:21.268Z,76.84
2017-12-28T23:56:47.751Z,76.17
2017-12-28T23:59:14.184Z,78.58
